Bucks, AL (36512)

12:33 AM CDT on July 26, 2016 (GMT -0500)
APRSWXNET | | Change Station

Elev 49 ft 31.15 °N, 88.00 °W | Updated 32 minutes ago

Clear
Clear
80 °F
Feels Like 85 °F
N
1
Wind Variable Wind from NNE
Gusts 0.0 mph

Today
High -- | Low -- °F
--% Chance of Precip.
Yesterday
High -- | Low -- °F
Precip. -- in
Pressure 29.96 in
Visibility 10.0 miles
Clouds Clear
Heat Index 85 °F
Dew Point 75 °F
Humidity 85%
Rainfall in
Snow Depth Not available.
6:05 AM 7:51 PM
Waning Gibbous, 58% visible
METAR KMOB 260456Z AUTO 07005KT 10SM CLR 26/24 A2997 RMK AO2 SLP145 T02610239 $
Pressure 29.96 in
Visibility 10.0 miles
Clouds Clear
Heat Index 85 °F
Dew Point 75 °F
Humidity 85%
Rainfall in
Snow Depth Not available.
6:05 AM 7:51 PM
Waning Gibbous, 58% visible
METAR KMOB 260456Z AUTO 07005KT 10SM CLR 26/24 A2997 RMK AO2 SLP145 T02610239 $

10-Day Weather Forecast

Almanac

Astronomy

Jul. 26, 2016 Rise Set
Actual Time
Civil Twilight
Nautical Twilight
Astronomical Twilight
Moon
Length of Visible Light
Length of Day
Tomorrow will be .
, % of the Moon is Illuminated

Today's Extremes

State Highs State Lows

Community

WunderPhotos

Upload Photos

1,927,538 photos uploaded!

WunderBlog® & News

Nearby

Air Quality

  Air Quality AQ Index Pollutant
Not available.

Snow Depth

Station Depth Elevation

Earthquake Activity

City Distance Mag. Time & Date
Minimum magnitude displayed is 2.5.

Coastal Water Temperatures

Place Temperature

Stations

Nearby Weather Stations

Station Location Temp. Windchill Dew Point Humidity Wind Precip. Elev Updated Type
                   

Watches & Warnings

There are currently no watches in effect.